Terminal Aerodrome Forecast
Issued by NWS

Home | Current Version | Previous Version | Text Only | Print | Product List | Glossary On
Versions: 1 2 3 4 5 6 7 8 9 10 11 12 13 14 15 16 17 18 19 20 21 22 23 24 25 26
000
FTAK31 PANC 031742
TAFAAQ
TAF
PAAQ 031742Z 0318/0418 VRB06KT P6SM -RA SCT045 OVC080
     FM032200 13008KT P6SM -RA SCT040 OVC060
     FM040800 VRB05KT P6SM -SHRA BKN060 OVC100=

USA.gov is the U.S. government's official web portal to all federal, state and local government web resources and services.